sensor_id;sensor_type;location;lat;lon;timestamp;pressure;altitude;pressure_sealevel;temperature;humidity
56142;BME280;42018;48.588;10.836;2023-02-13T00:01:28;98770.06;;;2.76;80.26
56142;BME280;42018;48.588;10.836;2023-02-13T00:04:14;98768.44;;;2.67;81.41
56142;BME280;42018;48.588;10.836;2023-02-13T00:06:59;98761.75;;;2.56;82.21
56142;BME280;42018;48.588;10.836;2023-02-13T00:09:44;98760.09;;;2.72;81.89
56142;BME280;42018;48.588;10.836;2023-02-13T00:12:30;98752.72;;;2.75;81.05
56142;BME280;42018;48.588;10.836;2023-02-13T00:15:15;98752.41;;;2.62;81.69
56142;BME280;42018;48.588;10.836;2023-02-13T00:18:01;98755.00;;;2.62;82.16
56142;BME280;42018;48.588;10.836;2023-02-13T00:20:59;98755.50;;;2.74;81.35
56142;BME280;42018;48.588;10.836;2023-02-13T00:23:45;98750.09;;;2.75;80.28
56142;BME280;42018;48.588;10.836;2023-02-13T00:26:30;98757.31;;;2.65;81.10
56142;BME280;42018;48.588;10.836;2023-02-13T00:29:15;98753.22;;;2.62;81.94
56142;BME280;42018;48.588;10.836;2023-02-13T00:32:01;98754.38;;;2.68;81.15
56142;BME280;42018;48.588;10.836;2023-02-13T00:34:46;98746.34;;;2.70;81.89
56142;BME280;42018;48.588;10.836;2023-02-13T00:37:32;98753.03;;;2.80;80.46
56142;BME280;42018;48.588;10.836;2023-02-13T00:40:18;98758.47;;;2.71;81.31
56142;BME280;42018;48.588;10.836;2023-02-13T00:43:03;98752.88;;;2.66;81.60
56142;BME280;42018;48.588;10.836;2023-02-13T00:45:49;98757.00;;;2.60;81.80
56142;BME280;42018;48.588;10.836;2023-02-13T00:48:34;98757.50;;;2.63;81.32
56142;BME280;42018;48.588;10.836;2023-02-13T00:51:20;98761.56;;;2.58;81.69
56142;BME280;42018;48.588;10.836;2023-02-13T00:54:05;98756.00;;;2.69;81.59
56142;BME280;42018;48.588;10.836;2023-02-13T00:56:51;98756.31;;;2.66;81.12
56142;BME280;42018;48.588;10.836;2023-02-13T00:59:36;98761.56;;;2.74;80.88
56142;BME280;42018;48.588;10.836;2023-02-13T01:02:22;98757.63;;;2.70;80.77
56142;BME280;42018;48.588;10.836;2023-02-13T01:05:07;98760.56;;;2.59;80.67
56142;BME280;42018;48.588;10.836;2023-02-13T01:07:52;98759.78;;;2.42;80.88
56142;BME280;42018;48.588;10.836;2023-02-13T01:10:38;98750.13;;;2.43;81.10
56142;BME280;42018;48.588;10.836;2023-02-13T01:13:25;98760.41;;;2.52;81.05
56142;BME280;42018;48.588;10.836;2023-02-13T01:16:10;98760.25;;;2.29;81.50
56142;BME280;42018;48.588;10.836;2023-02-13T01:18:56;98756.34;;;2.25;81.88
56142;BME280;42018;48.588;10.836;2023-02-13T01:21:41;98758.28;;;2.15;82.43
56142;BME280;42018;48.588;10.836;2023-02-13T01:24:27;98759.25;;;2.30;81.70
56142;BME280;42018;48.588;10.836;2023-02-13T01:27:14;98761.41;;;2.43;81.73
56142;BME280;42018;48.588;10.836;2023-02-13T01:29:59;98761.41;;;2.43;80.84
56142;BME280;42018;48.588;10.836;2023-02-13T01:32:45;98763.53;;;2.48;80.91
56142;BME280;42018;48.588;10.836;2023-02-13T01:35:31;98768.25;;;2.52;80.65
56142;BME280;42018;48.588;10.836;2023-02-13T01:38:17;98751.94;;;2.42;80.58
56142;BME280;42018;48.588;10.836;2023-02-13T01:41:03;98756.97;;;2.27;81.83
56142;BME280;42018;48.588;10.836;2023-02-13T01:43:54;98755.34;;;2.34;81.26
56142;BME280;42018;48.588;10.836;2023-02-13T01:46:41;98755.00;;;2.05;81.21
56142;BME280;42018;48.588;10.836;2023-02-13T01:49:28;98758.59;;;2.12;81.34
56142;BME280;42018;48.588;10.836;2023-02-13T01:52:14;98755.00;;;2.13;81.59
56142;BME280;42018;48.588;10.836;2023-02-13T01:55:00;98747.47;;;2.02;80.75
56142;BME280;42018;48.588;10.836;2023-02-13T01:57:51;98749.03;;;1.70;82.82
56142;BME280;42018;48.588;10.836;2023-02-13T02:00:38;98749.72;;;1.38;84.41
56142;BME280;42018;48.588;10.836;2023-02-13T02:03:33;98747.84;;;1.14;86.24
56142;BME280;42018;48.588;10.836;2023-02-13T02:06:30;98749.09;;;1.36;84.98
56142;BME280;42018;48.588;10.836;2023-02-13T02:09:20;98746.16;;;1.05;86.47
56142;BME280;42018;48.588;10.836;2023-02-13T02:14:54;98752.56;;;1.10;86.18
56142;BME280;42018;48.588;10.836;2023-02-13T02:17:40;98750.16;;;0.91;89.05
56142;BME280;42018;48.588;10.836;2023-02-13T02:20:42;98751.63;;;1.28;88.01
56142;BME280;42018;48.588;10.836;2023-02-13T02:26:45;98749.56;;;1.05;88.04
56142;BME280;42018;48.588;10.836;2023-02-13T02:33:40;98743.53;;;1.39;85.08
56142;BME280;42018;48.588;10.836;2023-02-13T02:45:44;98748.06;;;1.71;83.67
56142;BME280;42018;48.588;10.836;2023-02-13T02:48:54;98750.06;;;1.85;83.55
56142;BME280;42018;48.588;10.836;2023-02-13T02:52:06;98743.03;;;1.94;82.51
56142;BME280;42018;48.588;10.836;2023-02-13T03:01:21;98739.84;;;1.50;83.48
56142;BME280;42018;48.588;10.836;2023-02-13T03:04:30;98737.44;;;1.22;83.95
56142;BME280;42018;48.588;10.836;2023-02-13T03:07:35;98742.34;;;0.99;87.33
56142;BME280;42018;48.588;10.836;2023-02-13T03:10:28;98742.28;;;0.83;87.49
56142;BME280;42018;48.588;10.836;2023-02-13T03:13:43;98749.41;;;0.81;88.16
56142;BME280;42018;48.588;10.836;2023-02-13T03:16:31;98754.81;;;0.79;88.07
56142;BME280;42018;48.588;10.836;2023-02-13T03:23:11;98762.31;;;0.03;92.03
56142;BME280;42018;48.588;10.836;2023-02-13T03:32:50;98759.81;;;0.11;91.02
56142;BME280;42018;48.588;10.836;2023-02-13T03:36:06;98768.13;;;-0.04;91.92
56142;BME280;42018;48.588;10.836;2023-02-13T03:39:20;98764.56;;;0.15;92.94
56142;BME280;42018;48.588;10.836;2023-02-13T03:42:30;98764.03;;;0.30;92.13
56142;BME280;42018;48.588;10.836;2023-02-13T03:45:31;98765.63;;;0.22;90.37
56142;BME280;42018;48.588;10.836;2023-02-13T03:48:38;98762.72;;;0.08;92.22
56142;BME280;42018;48.588;10.836;2023-02-13T03:52:04;98764.50;;;0.07;90.48
56142;BME280;42018;48.588;10.836;2023-02-13T03:54:55;98770.63;;;-0.30;92.35
56142;BME280;42018;48.588;10.836;2023-02-13T03:58:11;98772.00;;;-0.53;93.91
56142;BME280;42018;48.588;10.836;2023-02-13T04:01:20;98772.19;;;-0.19;94.22
56142;BME280;42018;48.588;10.836;2023-02-13T04:04:10;98776.56;;;0.26;91.72
56142;BME280;42018;48.588;10.836;2023-02-13T04:07:09;98778.47;;;0.42;89.87
56142;BME280;42018;48.588;10.836;2023-02-13T04:10:05;98786.22;;;0.52;89.85
56142;BME280;42018;48.588;10.836;2023-02-13T04:13:21;98781.44;;;0.65;88.22
56142;BME280;42018;48.588;10.836;2023-02-13T04:16:16;98778.84;;;0.91;87.10
56142;BME280;42018;48.588;10.836;2023-02-13T04:19:05;98788.91;;;1.04;86.37
56142;BME280;42018;48.588;10.836;2023-02-13T04:21:56;98783.56;;;0.87;85.16
56142;BME280;42018;48.588;10.836;2023-02-13T04:24:43;98789.84;;;0.77;86.26
56142;BME280;42018;48.588;10.836;2023-02-13T04:27:28;98788.69;;;0.97;85.93
56142;BME280;42018;48.588;10.836;2023-02-13T04:30:14;98797.81;;;1.27;84.62
56142;BME280;42018;48.588;10.836;2023-02-13T04:32:59;98797.22;;;1.33;84.05
56142;BME280;42018;48.588;10.836;2023-02-13T04:35:44;98799.81;;;1.33;83.79
56142;BME280;42018;48.588;10.836;2023-02-13T04:38:30;98807.94;;;1.22;84.46
56142;BME280;42018;48.588;10.836;2023-02-13T04:41:15;98798.97;;;1.25;84.14
56142;BME280;42018;48.588;10.836;2023-02-13T04:44:00;98795.78;;;1.13;83.16
56142;BME280;42018;48.588;10.836;2023-02-13T04:46:46;98798.50;;;1.03;83.95
56142;BME280;42018;48.588;10.836;2023-02-13T04:49:31;98792.75;;;1.00;85.67
56142;BME280;42018;48.588;10.836;2023-02-13T04:52:16;98796.53;;;1.31;85.33
56142;BME280;42018;48.588;10.836;2023-02-13T04:55:02;98799.16;;;1.31;84.08
56142;BME280;42018;48.588;10.836;2023-02-13T04:57:51;98797.69;;;1.29;83.37
56142;BME280;42018;48.588;10.836;2023-02-13T05:00:37;98798.81;;;1.26;84.26
56142;BME280;42018;48.588;10.836;2023-02-13T05:03:22;98790.44;;;1.14;82.86
56142;BME280;42018;48.588;10.836;2023-02-13T05:06:07;98795.94;;;1.11;83.99
56142;BME280;42018;48.588;10.836;2023-02-13T05:08:53;98793.22;;;0.95;84.54
56142;BME280;42018;48.588;10.836;2023-02-13T05:11:38;98794.72;;;0.98;86.68
56142;BME280;42018;48.588;10.836;2023-02-13T05:14:24;98796.94;;;1.10;84.56
56142;BME280;42018;48.588;10.836;2023-02-13T05:17:09;98793.09;;;0.97;84.69
56142;BME280;42018;48.588;10.836;2023-02-13T05:19:54;98799.16;;;0.79;84.68
56142;BME280;42018;48.588;10.836;2023-02-13T05:22:47;98790.97;;;0.56;86.23
56142;BME280;42018;48.588;10.836;2023-02-13T05:25:52;98794.28;;;0.58;87.88
56142;BME280;42018;48.588;10.836;2023-02-13T05:28:38;98791.34;;;0.79;86.33
56142;BME280;42018;48.588;10.836;2023-02-13T05:31:41;98796.41;;;0.63;85.95
56142;BME280;42018;48.588;10.836;2023-02-13T05:34:27;98796.25;;;0.82;86.49
56142;BME280;42018;48.588;10.836;2023-02-13T05:37:13;98800.13;;;0.60;85.96
56142;BME280;42018;48.588;10.836;2023-02-13T05:39:58;98794.84;;;0.70;86.74
56142;BME280;42018;48.588;10.836;2023-02-13T05:42:44;98796.25;;;1.08;85.55
56142;BME280;42018;48.588;10.836;2023-02-13T05:45:29;98797.94;;;1.17;84.72
56142;BME280;42018;48.588;10.836;2023-02-13T05:48:14;98801.59;;;0.81;85.53
56142;BME280;42018;48.588;10.836;2023-02-13T05:51:00;98803.56;;;0.79;87.19
56142;BME280;42018;48.588;10.836;2023-02-13T05:53:45;98805.19;;;0.80;85.89
56142;BME280;42018;48.588;10.836;2023-02-13T05:56:30;98800.06;;;0.52;87.08
56142;BME280;42018;48.588;10.836;2023-02-13T05:59:16;98803.19;;;0.74;88.28
56142;BME280;42018;48.588;10.836;2023-02-13T06:02:01;98799.50;;;0.84;87.42
56142;BME280;42018;48.588;10.836;2023-02-13T06:04:46;98798.97;;;0.99;86.25
56142;BME280;42018;48.588;10.836;2023-02-13T06:07:32;98805.44;;;1.20;84.87
56142;BME280;42018;48.588;10.836;2023-02-13T06:10:17;98805.34;;;1.30;83.88
56142;BME280;42018;48.588;10.836;2023-02-13T06:13:10;98805.47;;;0.94;84.30
56142;BME280;42018;48.588;10.836;2023-02-13T06:15:59;98810.50;;;1.14;85.16
56142;BME280;42018;48.588;10.836;2023-02-13T06:18:44;98804.03;;;1.26;84.12
56142;BME280;42018;48.588;10.836;2023-02-13T06:21:30;98807.31;;;1.28;83.61
56142;BME280;42018;48.588;10.836;2023-02-13T06:24:17;98811.38;;;1.57;82.86
56142;BME280;42018;48.588;10.836;2023-02-13T06:27:02;98807.91;;;1.56;82.25
56142;BME280;42018;48.588;10.836;2023-02-13T06:29:56;98817.59;;;1.64;82.40
56142;BME280;42018;48.588;10.836;2023-02-13T06:32:42;98821.06;;;1.73;81.23
56142;BME280;42018;48.588;10.836;2023-02-13T06:35:36;98823.19;;;1.77;81.08
56142;BME280;42018;48.588;10.836;2023-02-13T06:38:22;98823.88;;;1.79;80.99
56142;BME280;42018;48.588;10.836;2023-02-13T06:41:12;98824.34;;;1.75;80.71
56142;BME280;42018;48.588;10.836;2023-02-13T06:47:32;98825.81;;;1.77;80.35
56142;BME280;42018;48.588;10.836;2023-02-13T06:50:17;98828.91;;;1.81;80.08
56142;BME280;42018;48.588;10.836;2023-02-13T06:53:03;98834.97;;;1.81;80.09
56142;BME280;42018;48.588;10.836;2023-02-13T06:55:51;98839.84;;;1.68;80.74
56142;BME280;42018;48.588;10.836;2023-02-13T06:58:37;98839.19;;;1.74;80.69
56142;BME280;42018;48.588;10.836;2023-02-13T07:01:24;98847.03;;;1.74;81.46
56142;BME280;42018;48.588;10.836;2023-02-13T07:04:09;98842.78;;;1.73;80.72
56142;BME280;42018;48.588;10.836;2023-02-13T07:06:55;98848.31;;;1.70;81.81
56142;BME280;42018;48.588;10.836;2023-02-13T07:09:41;98844.75;;;1.71;80.98
56142;BME280;42018;48.588;10.836;2023-02-13T07:12:26;98844.25;;;1.67;80.74
56142;BME280;42018;48.588;10.836;2023-02-13T07:15:12;98858.53;;;1.89;80.76
56142;BME280;42018;48.588;10.836;2023-02-13T07:17:58;98849.72;;;1.90;79.15
56142;BME280;42018;48.588;10.836;2023-02-13T07:20:43;98848.91;;;1.98;79.20
56142;BME280;42018;48.588;10.836;2023-02-13T07:23:29;98856.22;;;1.52;81.14
56142;BME280;42018;48.588;10.836;2023-02-13T07:26:14;98865.00;;;1.17;82.93
56142;BME280;42018;48.588;10.836;2023-02-13T07:29:00;98858.59;;;1.37;82.04
56142;BME280;42018;48.588;10.836;2023-02-13T07:31:50;98870.56;;;1.48;81.66
56142;BME280;42018;48.588;10.836;2023-02-13T07:34:35;98868.94;;;1.47;81.38
56142;BME280;42018;48.588;10.836;2023-02-13T07:37:20;98873.28;;;1.38;82.22
56142;BME280;42018;48.588;10.836;2023-02-13T07:40:06;98872.94;;;1.33;82.89
56142;BME280;42018;48.588;10.836;2023-02-13T07:42:52;98867.34;;;1.54;82.05
56142;BME280;42018;48.588;10.836;2023-02-13T07:45:37;98870.22;;;1.17;83.31
56142;BME280;42018;48.588;10.836;2023-02-13T07:48:23;98869.13;;;1.28;83.10
56142;BME280;42018;48.588;10.836;2023-02-13T07:51:11;98875.59;;;1.15;83.67
56142;BME280;42018;48.588;10.836;2023-02-13T07:53:56;98875.50;;;1.25;83.35
56142;BME280;42018;48.588;10.836;2023-02-13T07:56:42;98869.22;;;1.36;82.58
56142;BME280;42018;48.588;10.836;2023-02-13T07:59:27;98872.97;;;1.41;82.46
56142;BME280;42018;48.588;10.836;2023-02-13T08:02:13;98863.22;;;1.43;82.88
56142;BME280;42018;48.588;10.836;2023-02-13T08:04:59;98866.84;;;1.51;82.34
56142;BME280;42018;48.588;10.836;2023-02-13T08:07:44;98865.09;;;1.59;82.11
56142;BME280;42018;48.588;10.836;2023-02-13T08:10:29;98868.50;;;1.60;81.67
56142;BME280;42018;48.588;10.836;2023-02-13T08:13:33;98866.22;;;1.57;81.69
56142;BME280;42018;48.588;10.836;2023-02-13T08:16:19;98867.19;;;1.56;81.67
56142;BME280;42018;48.588;10.836;2023-02-13T08:19:04;98869.78;;;1.56;82.05
56142;BME280;42018;48.588;10.836;2023-02-13T08:21:49;98870.88;;;1.45;82.02
56142;BME280;42018;48.588;10.836;2023-02-13T08:24:35;98871.50;;;1.65;81.58
56142;BME280;42018;48.588;10.836;2023-02-13T08:27:20;98868.50;;;1.60;81.70
56142;BME280;42018;48.588;10.836;2023-02-13T08:30:08;98869.34;;;1.34;83.15
56142;BME280;42018;48.588;10.836;2023-02-13T08:32:53;98874.31;;;1.46;82.13
56142;BME280;42018;48.588;10.836;2023-02-13T08:35:39;98877.44;;;1.49;81.99
56142;BME280;42018;48.588;10.836;2023-02-13T08:38:24;98881.22;;;1.55;82.05
56142;BME280;42018;48.588;10.836;2023-02-13T08:41:09;98877.03;;;1.62;82.00
56142;BME280;42018;48.588;10.836;2023-02-13T08:43:55;98877.75;;;1.46;82.03
56142;BME280;42018;48.588;10.836;2023-02-13T08:46:40;98878.84;;;1.35;82.17
56142;BME280;42018;48.588;10.836;2023-02-13T08:49:25;98879.50;;;1.37;82.51
56142;BME280;42018;48.588;10.836;2023-02-13T08:52:11;98887.88;;;1.23;82.32
56142;BME280;42018;48.588;10.836;2023-02-13T08:54:56;98890.16;;;1.18;83.47
56142;BME280;42018;48.588;10.836;2023-02-13T08:57:41;98893.31;;;1.30;82.86
56142;BME280;42018;48.588;10.836;2023-02-13T09:00:27;98893.06;;;1.15;82.91
56142;BME280;42018;48.588;10.836;2023-02-13T09:03:13;98894.91;;;1.23;84.24
56142;BME280;42018;48.588;10.836;2023-02-13T09:05:59;98884.28;;;1.24;83.21
56142;BME280;42018;48.588;10.836;2023-02-13T09:08:45;98881.25;;;1.29;82.37
56142;BME280;42018;48.588;10.836;2023-02-13T09:11:30;98880.59;;;1.09;84.83
56142;BME280;42018;48.588;10.836;2023-02-13T09:14:15;98887.41;;;1.28;85.30
56142;BME280;42018;48.588;10.836;2023-02-13T09:17:01;98891.78;;;1.19;83.97
56142;BME280;42018;48.588;10.836;2023-02-13T09:19:47;98882.19;;;1.02;85.74
56142;BME280;42018;48.588;10.836;2023-02-13T09:22:32;98881.94;;;1.13;86.20
56142;BME280;42018;48.588;10.836;2023-02-13T09:25:17;98891.44;;;1.14;86.09
56142;BME280;42018;48.588;10.836;2023-02-13T09:28:04;98880.59;;;1.09;85.92
56142;BME280;42018;48.588;10.836;2023-02-13T09:30:49;98882.34;;;1.26;85.15
56142;BME280;42018;48.588;10.836;2023-02-13T09:33:35;98881.69;;;1.50;84.69
56142;BME280;42018;48.588;10.836;2023-02-13T09:36:22;98876.78;;;1.21;84.69
56142;BME280;42018;48.588;10.836;2023-02-13T09:39:08;98880.91;;;1.06;86.68
56142;BME280;42018;48.588;10.836;2023-02-13T09:41:54;98883.66;;;1.04;86.44
56142;BME280;42018;48.588;10.836;2023-02-13T09:44:41;98877.13;;;1.26;86.52
56142;BME280;42018;48.588;10.836;2023-02-13T09:47:33;98881.03;;;1.22;85.96
56142;BME280;42018;48.588;10.836;2023-02-13T09:50:24;98881.50;;;1.17;86.31
56142;BME280;42018;48.588;10.836;2023-02-13T09:53:20;98886.50;;;1.37;85.13
56142;BME280;42018;48.588;10.836;2023-02-13T09:56:14;98886.66;;;1.61;84.26
56142;BME280;42018;48.588;10.836;2023-02-13T09:59:05;98895.25;;;1.80;83.83
56142;BME280;42018;48.588;10.836;2023-02-13T10:02:01;98892.22;;;1.92;82.80
56142;BME280;42018;48.588;10.836;2023-02-13T10:05:00;98894.69;;;2.02;82.40
56142;BME280;42018;48.588;10.836;2023-02-13T10:08:00;98886.06;;;2.10;81.90
56142;BME280;42018;48.588;10.836;2023-02-13T10:10:52;98891.97;;;2.20;81.59
56142;BME280;42018;48.588;10.836;2023-02-13T10:17:10;98888.31;;;2.05;81.64
56142;BME280;42018;48.588;10.836;2023-02-13T10:20:04;98894.69;;;1.16;86.53
56142;BME280;42018;48.588;10.836;2023-02-13T10:22:56;98887.94;;;0.87;88.03
56142;BME280;42018;48.588;10.836;2023-02-13T10:25:51;98890.91;;;1.36;86.43
56142;BME280;42018;48.588;10.836;2023-02-13T10:28:59;98891.13;;;1.77;85.11
56142;BME280;42018;48.588;10.836;2023-02-13T10:32:11;98890.53;;;1.83;83.84
56142;BME280;42018;48.588;10.836;2023-02-13T10:35:00;98892.41;;;1.39;85.98
56142;BME280;42018;48.588;10.836;2023-02-13T10:37:50;98891.03;;;1.09;88.08
56142;BME280;42018;48.588;10.836;2023-02-13T10:40:39;98890.22;;;1.08;87.76
56142;BME280;42018;48.588;10.836;2023-02-13T10:43:38;98886.69;;;1.35;87.76
56142;BME280;42018;48.588;10.836;2023-02-13T10:46:33;98883.47;;;1.24;87.66
56142;BME280;42018;48.588;10.836;2023-02-13T11:01:31;98862.88;;;1.73;85.02
56142;BME280;42018;48.588;10.836;2023-02-13T11:04:19;98864.69;;;1.80;84.75
56142;BME280;42018;48.588;10.836;2023-02-13T11:07:11;98867.19;;;1.30;88.02
56142;BME280;42018;48.588;10.836;2023-02-13T11:10:03;98863.72;;;1.21;89.02
56142;BME280;42018;48.588;10.836;2023-02-13T11:12:50;98862.59;;;1.24;88.36
56142;BME280;42018;48.588;10.836;2023-02-13T11:15:35;98856.38;;;0.99;90.04
56142;BME280;42018;48.588;10.836;2023-02-13T11:18:21;98854.59;;;0.99;89.62
56142;BME280;42018;48.588;10.836;2023-02-13T11:23:57;98859.03;;;1.25;89.04
56142;BME280;42018;48.588;10.836;2023-02-13T11:26:42;98855.06;;;1.20;88.87
56142;BME280;42018;48.588;10.836;2023-02-13T11:29:31;98853.59;;;1.44;88.34
56142;BME280;42018;48.588;10.836;2023-02-13T11:32:22;98842.56;;;1.58;86.78
56142;BME280;42018;48.588;10.836;2023-02-13T11:35:29;98842.34;;;1.52;87.77
56142;BME280;42018;48.588;10.836;2023-02-13T11:41:11;98843.75;;;1.38;88.66
56142;BME280;42018;48.588;10.836;2023-02-13T11:43:59;98840.41;;;1.54;87.37
56142;BME280;42018;48.588;10.836;2023-02-13T11:46:48;98845.28;;;1.49;88.26
56142;BME280;42018;48.588;10.836;2023-02-13T11:49:37;98838.81;;;1.61;87.57
56142;BME280;42018;48.588;10.836;2023-02-13T11:52:28;98841.69;;;1.84;86.06
56142;BME280;42018;48.588;10.836;2023-02-13T11:55:29;98835.72;;;2.08;85.68
56142;BME280;42018;48.588;10.836;2023-02-13T12:04:16;98845.41;;;1.73;86.42
56142;BME280;42018;48.588;10.836;2023-02-13T12:07:03;98843.16;;;1.78;86.13
56142;BME280;42018;48.588;10.836;2023-02-13T12:15:38;98836.28;;;2.44;83.66
56142;BME280;42018;48.588;10.836;2023-02-13T12:18:34;98839.75;;;2.69;82.55
56142;BME280;42018;48.588;10.836;2023-02-13T12:21:39;98832.03;;;2.51;82.09
56142;BME280;42018;48.588;10.836;2023-02-13T12:34:14;98824.16;;;2.19;85.03
56142;BME280;42018;48.588;10.836;2023-02-13T12:40:27;98823.34;;;2.34;84.21
56142;BME280;42018;48.588;10.836;2023-02-13T12:43:37;98822.69;;;2.24;84.54
56142;BME280;42018;48.588;10.836;2023-02-13T12:59:00;98807.69;;;2.75;83.60
56142;BME280;42018;48.588;10.836;2023-02-13T13:23:36;98799.81;;;2.92;81.84
56142;BME280;42018;48.588;10.836;2023-02-13T13:32:07;98795.16;;;3.26;80.39
56142;BME280;42018;48.588;10.836;2023-02-13T13:34:57;98795.69;;;3.22;80.29
56142;BME280;42018;48.588;10.836;2023-02-13T13:37:50;98797.44;;;3.38;80.03
56142;BME280;42018;48.588;10.836;2023-02-13T13:40:57;98805.03;;;3.08;79.61
56142;BME280;42018;48.588;10.836;2023-02-13T13:49:58;98795.56;;;2.25;85.26
56142;BME280;42018;48.588;10.836;2023-02-13T13:53:19;98796.88;;;2.21;86.65
56142;BME280;42018;48.588;10.836;2023-02-13T13:56:07;98792.09;;;2.16;86.63
56142;BME280;42018;48.588;10.836;2023-02-13T13:58:53;98799.16;;;2.32;86.15
56142;BME280;42018;48.588;10.836;2023-02-13T14:01:40;98796.22;;;2.76;84.11
56142;BME280;42018;48.588;10.836;2023-02-13T14:07:23;98791.81;;;2.69;84.19
56142;BME280;42018;48.588;10.836;2023-02-13T14:13:06;98795.25;;;2.53;85.49
56142;BME280;42018;48.588;10.836;2023-02-13T14:15:52;98798.88;;;2.60;84.93
56142;BME280;42018;48.588;10.836;2023-02-13T14:18:44;98794.25;;;2.70;84.43
56142;BME280;42018;48.588;10.836;2023-02-13T14:21:30;98783.13;;;2.93;83.95
56142;BME280;42018;48.588;10.836;2023-02-13T14:24:17;98778.34;;;3.12;82.70
56142;BME280;42018;48.588;10.836;2023-02-13T14:27:03;98783.03;;;3.33;81.71
56142;BME280;42018;48.588;10.836;2023-02-13T14:29:49;98780.56;;;3.40;81.22
56142;BME280;42018;48.588;10.836;2023-02-13T14:32:38;98783.31;;;3.47;80.71
56142;BME280;42018;48.588;10.836;2023-02-13T14:35:27;98775.09;;;3.58;80.43
56142;BME280;42018;48.588;10.836;2023-02-13T14:38:23;98778.03;;;3.55;80.61
56142;BME280;42018;48.588;10.836;2023-02-13T14:41:45;98781.41;;;3.32;80.50
56142;BME280;42018;48.588;10.836;2023-02-13T14:44:50;98779.44;;;3.34;80.67
56142;BME280;42018;48.588;10.836;2023-02-13T14:47:42;98781.09;;;3.19;80.78
56142;BME280;42018;48.588;10.836;2023-02-13T14:50:50;98779.31;;;3.20;82.05
56142;BME280;42018;48.588;10.836;2023-02-13T14:53:50;98779.84;;;2.91;82.98
56142;BME280;42018;48.588;10.836;2023-02-13T14:56:36;98784.41;;;3.05;82.79
56142;BME280;42018;48.588;10.836;2023-02-13T14:59:25;98776.88;;;3.18;82.41
56142;BME280;42018;48.588;10.836;2023-02-13T15:05:15;98770.28;;;3.30;81.35
56142;BME280;42018;48.588;10.836;2023-02-13T15:08:12;98769.59;;;3.36;80.61
56142;BME280;42018;48.588;10.836;2023-02-13T15:10:59;98776.97;;;3.33;81.18
56142;BME280;42018;48.588;10.836;2023-02-13T15:13:44;98777.16;;;3.31;81.02
56142;BME280;42018;48.588;10.836;2023-02-13T15:16:30;98773.84;;;3.38;80.69
56142;BME280;42018;48.588;10.836;2023-02-13T15:19:17;98770.28;;;3.30;80.61
56142;BME280;42018;48.588;10.836;2023-02-13T15:22:04;98765.50;;;3.34;80.63
56142;BME280;42018;48.588;10.836;2023-02-13T15:24:51;98761.91;;;3.35;80.48
56142;BME280;42018;48.588;10.836;2023-02-13T15:27:42;98763.22;;;3.39;80.22
56142;BME280;42018;48.588;10.836;2023-02-13T15:30:32;98762.53;;;3.45;80.15
56142;BME280;42018;48.588;10.836;2023-02-13T15:33:22;98765.97;;;3.46;79.95
56142;BME280;42018;48.588;10.836;2023-02-13T15:36:21;98771.03;;;3.47;79.88
56142;BME280;42018;48.588;10.836;2023-02-13T15:39:15;98764.53;;;3.27;80.04
56142;BME280;42018;48.588;10.836;2023-02-13T15:42:02;98765.03;;;3.30;80.63
56142;BME280;42018;48.588;10.836;2023-02-13T15:44:50;98760.66;;;3.15;80.29
56142;BME280;42018;48.588;10.836;2023-02-13T15:47:38;98775.94;;;2.78;82.48
56142;BME280;42018;48.588;10.836;2023-02-13T15:50:30;98775.13;;;2.45;84.34
56142;BME280;42018;48.588;10.836;2023-02-13T15:53:17;98773.97;;;2.56;85.31
56142;BME280;42018;48.588;10.836;2023-02-13T15:56:04;98776.13;;;2.69;84.46
56142;BME280;42018;48.588;10.836;2023-02-13T15:58:50;98775.78;;;2.72;83.68
56142;BME280;42018;48.588;10.836;2023-02-13T16:01:37;98776.44;;;2.33;85.02
56142;BME280;42018;48.588;10.836;2023-02-13T16:04:23;98778.09;;;2.50;85.04
56142;BME280;42018;48.588;10.836;2023-02-13T16:07:11;98784.13;;;2.43;84.56
56142;BME280;42018;48.588;10.836;2023-02-13T16:10:29;98782.81;;;2.30;85.33
56142;BME280;42018;48.588;10.836;2023-02-13T16:13:16;98780.00;;;2.15;86.13
56142;BME280;42018;48.588;10.836;2023-02-13T16:16:07;98782.47;;;2.17;86.66
56142;BME280;42018;48.588;10.836;2023-02-13T16:18:53;98778.34;;;1.98;87.27
56142;BME280;42018;48.588;10.836;2023-02-13T16:21:39;98783.06;;;2.03;87.65
56142;BME280;42018;48.588;10.836;2023-02-13T16:24:25;98785.72;;;2.19;87.07
56142;BME280;42018;48.588;10.836;2023-02-13T16:27:12;98781.63;;;2.16;86.25
56142;BME280;42018;48.588;10.836;2023-02-13T16:30:02;98781.53;;;2.43;86.15
56142;BME280;42018;48.588;10.836;2023-02-13T16:32:48;98789.19;;;2.36;85.76
56142;BME280;42018;48.588;10.836;2023-02-13T16:35:38;98780.69;;;2.26;86.46
56142;BME280;42018;48.588;10.836;2023-02-13T16:38:29;98786.44;;;2.46;85.28
56142;BME280;42018;48.588;10.836;2023-02-13T16:44:03;98782.66;;;2.73;83.80
56142;BME280;42018;48.588;10.836;2023-02-13T16:49:39;98784.13;;;2.59;85.34
56142;BME280;42018;48.588;10.836;2023-02-13T16:52:24;98780.19;;;2.63;84.59
56142;BME280;42018;48.588;10.836;2023-02-13T16:55:13;98777.56;;;2.30;85.98
56142;BME280;42018;48.588;10.836;2023-02-13T16:58:03;98783.16;;;2.35;85.65
56142;BME280;42018;48.588;10.836;2023-02-13T17:00:49;98787.25;;;2.46;85.48
56142;BME280;42018;48.588;10.836;2023-02-13T17:03:35;98785.06;;;2.09;86.57
56142;BME280;42018;48.588;10.836;2023-02-13T17:06:23;98784.88;;;1.94;87.64
56142;BME280;42018;48.588;10.836;2023-02-13T17:09:09;98794.19;;;1.97;87.70
56142;BME280;42018;48.588;10.836;2023-02-13T17:11:54;98796.31;;;2.09;88.01
56142;BME280;42018;48.588;10.836;2023-02-13T17:14:40;98795.06;;;2.38;85.91
56142;BME280;42018;48.588;10.836;2023-02-13T17:17:28;98792.94;;;2.33;85.89
56142;BME280;42018;48.588;10.836;2023-02-13T17:20:22;98792.63;;;2.28;85.39
56142;BME280;42018;48.588;10.836;2023-02-13T17:23:14;98803.03;;;2.12;85.77
56142;BME280;42018;48.588;10.836;2023-02-13T17:26:01;98789.34;;;2.34;84.42